createdAt,value
2022-08-11T00:01:25.345Z,100470.09
2022-08-11T00:04:14.432Z,100456.50
2022-08-11T00:07:05.389Z,100459.31
2022-08-11T00:09:54.670Z,100464.97
2022-08-11T00:12:45.054Z,100447.78
2022-08-11T00:15:44.725Z,100476.00
2022-08-11T00:18:42.868Z,100471.13
2022-08-11T00:22:03.035Z,100446.50
2022-08-11T00:24:53.392Z,100452.88
2022-08-11T00:27:43.940Z,100453.88
2022-08-11T00:30:39.815Z,100449.75
2022-08-11T00:33:45.167Z,100469.50
2022-08-11T00:36:47.486Z,100462.25
2022-08-11T00:39:47.117Z,100466.06
2022-08-11T00:42:52.276Z,100465.03
2022-08-11T00:45:51.349Z,100474.75
2022-08-11T00:49:00.810Z,100476.00
2022-08-11T00:52:28.468Z,100468.75
2022-08-11T00:55:55.758Z,100459.81
2022-08-11T00:59:47.612Z,100470.56
2022-08-11T01:03:02.818Z,100465.38
2022-08-11T01:06:23.019Z,100471.28
2022-08-11T01:09:53.786Z,100467.66
2022-08-11T01:13:17.017Z,100467.34
2022-08-11T01:17:11.043Z,100463.38
2022-08-11T01:20:48.436Z,100475.56
2022-08-11T01:23:48.573Z,100485.94
2022-08-11T01:26:47.992Z,100477.19
2022-08-11T01:30:31.822Z,100478.06
2022-08-11T01:33:53.735Z,100484.47
2022-08-11T01:37:37.485Z,100485.94
2022-08-11T01:40:59.686Z,100486.66
2022-08-11T01:44:16.049Z,100489.44
2022-08-11T01:47:53.489Z,100490.53
2022-08-11T01:51:00.342Z,100485.41
2022-08-11T01:54:04.860Z,100481.81
2022-08-11T01:57:21.826Z,100476.25
2022-08-11T02:00:25.004Z,100482.09
2022-08-11T02:03:27.416Z,100476.25
2022-08-11T02:06:56.586Z,100483.59
2022-08-11T02:10:36.413Z,100475.38
2022-08-11T02:13:49.132Z,100497.47
2022-08-11T02:16:55.791Z,100493.13
2022-08-11T02:20:36.841Z,100479.56
2022-08-11T02:24:04.912Z,100491.25
2022-08-11T02:27:00.861Z,100487.41
2022-08-11T02:30:09.991Z,100487.31
2022-08-11T02:33:24.090Z,100483.66
2022-08-11T02:36:21.801Z,100479.00
2022-08-11T02:39:13.485Z,100485.31
2022-08-11T02:42:35.105Z,100477.06
2022-08-11T02:45:46.205Z,100487.44
2022-08-11T02:49:02.515Z,100479.94
2022-08-11T02:52:18.400Z,100473.66
2022-08-11T02:55:56.110Z,100490.00
2022-08-11T02:59:48.383Z,100484.66
2022-08-11T03:03:13.548Z,100473.38
2022-08-11T03:06:35.728Z,100485.78
2022-08-11T03:09:38.315Z,100484.81
2022-08-11T03:12:59.603Z,100471.06
2022-08-11T03:16:40.523Z,100476.34
2022-08-11T03:19:33.824Z,100478.16
2022-08-11T03:22:41.110Z,100451.44
2022-08-11T03:26:01.698Z,100474.81
2022-08-11T03:29:06.119Z,100480.00
2022-08-11T03:32:25.148Z,100478.25
2022-08-11T03:35:21.158Z,100474.88
2022-08-11T03:38:15.295Z,100485.59
2022-08-11T03:42:01.949Z,100482.03
2022-08-11T03:45:13.298Z,100476.34
2022-08-11T03:48:11.809Z,100472.19
2022-08-11T03:51:27.588Z,100479.84
2022-08-11T03:55:07.513Z,100484.41
2022-08-11T03:58:19.681Z,100477.47
2022-08-11T04:01:37.861Z,100477.66
2022-08-11T04:04:51.403Z,100484.56
2022-08-11T04:08:03.467Z,100488.03
2022-08-11T04:11:30.294Z,100491.88
2022-08-11T04:15:08.060Z,100491.41
2022-08-11T04:18:43.943Z,100506.31
2022-08-11T04:22:08.613Z,100493.34
2022-08-11T04:25:27.124Z,100493.81
2022-08-11T04:28:49.759Z,100486.94
2022-08-11T04:32:25.916Z,100495.53
2022-08-11T04:35:58.152Z,100493.88
2022-08-11T04:39:08.880Z,100501.53
2022-08-11T04:42:53.671Z,100490.22
2022-08-11T04:46:36.497Z,100488.28
2022-08-11T04:50:14.549Z,100476.28
2022-08-11T04:53:34.189Z,100493.38
2022-08-11T04:56:45.133Z,100510.69
2022-08-11T05:00:07.718Z,100496.38
2022-08-11T05:03:49.938Z,100498.22
2022-08-11T05:07:06.219Z,100502.34
2022-08-11T05:10:42.968Z,100505.97
2022-08-11T05:14:31.038Z,100504.56
2022-08-11T05:17:55.779Z,100498.28
2022-08-11T05:21:16.328Z,100504.94
2022-08-11T05:24:31.085Z,100505.53
2022-08-11T05:27:38.096Z,100508.59
2022-08-11T05:30:49.739Z,100510.25
2022-08-11T05:34:30.074Z,100513.66
2022-08-11T05:37:34.370Z,100514.19
2022-08-11T05:40:41.074Z,100510.19
2022-08-11T05:44:20.963Z,100513.31
2022-08-11T05:47:28.791Z,100527.00
2022-08-11T05:50:37.753Z,100528.03
2022-08-11T05:53:46.170Z,100517.75
2022-08-11T05:56:50.919Z,100531.22
2022-08-11T05:59:38.996Z,100516.25
2022-08-11T06:02:28.389Z,100527.94
2022-08-11T06:05:19.474Z,100521.31
2022-08-11T06:08:09.194Z,100524.16
2022-08-11T06:11:04.021Z,100508.28
2022-08-11T06:13:52.999Z,100519.78
2022-08-11T06:16:43.115Z,100521.06
2022-08-11T06:19:38.955Z,100533.53
2022-08-11T06:22:28.767Z,100529.03
2022-08-11T06:25:17.614Z,100515.31
2022-08-11T06:28:07.864Z,100531.13
2022-08-11T06:30:56.258Z,100528.03
2022-08-11T06:34:27.466Z,100524.00
2022-08-11T06:37:27.350Z,100520.16
2022-08-11T06:40:31.427Z,100519.06
2022-08-11T06:43:23.339Z,100522.63
2022-08-11T06:46:28.169Z,100525.66
2022-08-11T06:49:38.070Z,100532.03
2022-08-11T06:52:36.400Z,100531.31
2022-08-11T06:55:55.518Z,100520.78
2022-08-11T06:59:07.995Z,100530.75
2022-08-11T07:02:07.191Z,100525.81
2022-08-11T07:05:04.432Z,100528.78
2022-08-11T07:08:33.051Z,100530.25
2022-08-11T07:12:12.738Z,100523.59
2022-08-11T07:15:23.505Z,100522.13
2022-08-11T07:18:39.636Z,100521.06
2022-08-11T07:22:00.873Z,100527.56
2022-08-11T07:25:22.495Z,100524.91
2022-08-11T07:28:41.816Z,100523.66
2022-08-11T07:31:50.549Z,100522.50
2022-08-11T07:34:46.265Z,100519.84
2022-08-11T07:37:35.981Z,100505.97
2022-08-11T07:40:25.121Z,100525.19
2022-08-11T07:43:14.261Z,100516.16
2022-08-11T07:46:23.389Z,100512.72
2022-08-11T07:49:30.208Z,100509.47
2022-08-11T07:52:30.882Z,100507.91
2022-08-11T07:55:21.412Z,100516.63
2022-08-11T07:58:53.182Z,100505.06
2022-08-11T08:02:01.420Z,100520.94
2022-08-11T08:05:08.573Z,100513.66
2022-08-11T08:08:15.243Z,100517.84
2022-08-11T08:11:27.426Z,100502.66
2022-08-11T08:14:35.988Z,100506.59
2022-08-11T08:17:43.268Z,100518.03
2022-08-11T08:20:42.973Z,100522.16
2022-08-11T08:23:34.064Z,100528.69
2022-08-11T08:26:40.571Z,100512.41
2022-08-11T08:29:52.726Z,100518.69
2022-08-11T08:32:42.776Z,100513.63
2022-08-11T08:35:33.060Z,100506.81
2022-08-11T08:38:21.161Z,100516.78
2022-08-11T08:41:10.326Z,100516.50
2022-08-11T08:44:36.763Z,100514.78
2022-08-11T08:47:41.873Z,100496.25
2022-08-11T08:50:50.456Z,100518.69
2022-08-11T08:53:51.801Z,100503.13
2022-08-11T08:56:46.954Z,100521.91
2022-08-11T08:59:49.030Z,100513.00
2022-08-11T09:02:39.345Z,100498.28
2022-08-11T09:05:27.386Z,100507.66
2022-08-11T09:08:25.463Z,100502.25
2022-08-11T09:11:34.492Z,100502.84
2022-08-11T09:14:55.334Z,100502.63
2022-08-11T09:18:06.042Z,100494.38
2022-08-11T09:21:02.368Z,100493.63
2022-08-11T09:24:19.147Z,100463.13
2022-08-11T09:27:16.124Z,100480.88
2022-08-11T09:30:06.819Z,100479.06
2022-08-11T09:33:02.338Z,100475.00
2022-08-11T09:35:58.849Z,100468.91
2022-08-11T09:39:12.243Z,100475.44
2022-08-11T09:42:04.546Z,100470.22
2022-08-11T09:44:57.818Z,100460.59
2022-08-11T09:47:55.156Z,100453.72
2022-08-11T09:50:51.273Z,100453.00
2022-08-11T09:54:02.851Z,100457.81
2022-08-11T09:57:13.266Z,100443.03
2022-08-11T10:00:09.540Z,100456.84
2022-08-11T10:03:07.162Z,100453.81
2022-08-11T10:06:17.483Z,100447.81
2022-08-11T10:09:11.529Z,100465.72
2022-08-11T10:12:04.791Z,100450.25
2022-08-11T10:15:21.545Z,100461.16
2022-08-11T10:18:33.891Z,100446.59
2022-08-11T10:21:40.035Z,100453.91
2022-08-11T10:24:51.601Z,100436.91
2022-08-11T10:28:17.806Z,100431.44
2022-08-11T10:31:16.679Z,100437.53
2022-08-11T10:34:10.673Z,100436.56
2022-08-11T10:37:05.652Z,100426.16
2022-08-11T10:40:04.094Z,100422.91
2022-08-11T10:43:13.422Z,100398.47
2022-08-11T10:46:29.776Z,100406.69
2022-08-11T10:49:22.818Z,100416.31
2022-08-11T10:52:29.830Z,100428.50
2022-08-11T10:55:36.727Z,100427.13
2022-08-11T10:58:43.379Z,100415.13
2022-08-11T11:01:36.535Z,100402.97
2022-08-11T11:04:45.592Z,100395.69
2022-08-11T11:08:30.293Z,100396.41
2022-08-11T11:11:21.721Z,100384.56
2022-08-11T11:14:28.809Z,100389.50
2022-08-11T11:17:46.111Z,100372.41
2022-08-11T11:20:47.978Z,100386.31
2022-08-11T11:24:13.290Z,100384.84
2022-08-11T11:27:36.944Z,100363.53
2022-08-11T11:31:25.665Z,100382.69
2022-08-11T11:34:58.279Z,100367.41
2022-08-11T11:37:56.234Z,100353.94
2022-08-11T11:41:13.323Z,100364.09
2022-08-11T11:44:04.574Z,100352.47
2022-08-11T11:46:53.045Z,100342.09
2022-08-11T11:49:44.007Z,100355.69
2022-08-11T11:52:35.318Z,100335.31
2022-08-11T11:55:25.551Z,100323.88
2022-08-11T11:58:32.620Z,100346.94
2022-08-11T12:01:24.173Z,100324.22
2022-08-11T12:04:14.126Z,100326.22
2022-08-11T12:07:22.231Z,100327.53
2022-08-11T12:10:10.571Z,100310.00
2022-08-11T12:13:35.513Z,100315.66
2022-08-11T12:16:33.390Z,100308.00
2022-08-11T12:19:35.923Z,100300.56
2022-08-11T12:22:42.706Z,100303.88
2022-08-11T12:25:59.597Z,100293.28
2022-08-11T12:28:59.762Z,100305.59
2022-08-11T12:31:49.229Z,100292.28
2022-08-11T12:34:37.177Z,100304.09
2022-08-11T12:37:30.946Z,100304.09
2022-08-11T12:41:12.172Z,100291.16
2022-08-11T12:44:10.736Z,100280.13
2022-08-11T12:47:02.049Z,100290.03
2022-08-11T12:50:21.692Z,100285.28
2022-08-11T12:53:13.039Z,100276.16
2022-08-11T12:56:24.788Z,100266.44
2022-08-11T12:59:31.570Z,100275.78
2022-08-11T13:02:44.373Z,100256.00
2022-08-11T13:05:33.180Z,100266.63
2022-08-11T13:08:29.856Z,100254.84
2022-08-11T13:11:56.698Z,100246.47
2022-08-11T13:14:48.030Z,100243.81
2022-08-11T13:17:43.713Z,100239.63
2022-08-11T13:20:32.433Z,100236.22
2022-08-11T13:23:20.640Z,100260.94
2022-08-11T13:26:08.947Z,100227.06
2022-08-11T13:28:57.154Z,100230.31
2022-08-11T13:31:46.392Z,100235.63
2022-08-11T13:34:41.521Z,100227.09
2022-08-11T13:38:19.474Z,100237.19
2022-08-11T13:40:55.127Z,100218.69
2022-08-11T13:43:46.491Z,100199.09
2022-08-11T13:46:34.791Z,100226.84
2022-08-11T13:49:23.545Z,100214.69
2022-08-11T13:52:15.781Z,100207.66
2022-08-11T13:55:04.099Z,100214.09
2022-08-11T13:58:19.331Z,100212.00
2022-08-11T14:02:03.980Z,100213.53
2022-08-11T14:04:40.031Z,100207.81
2022-08-11T14:07:46.441Z,100192.38
2022-08-11T14:10:38.207Z,100190.88
2022-08-11T14:13:41.345Z,100190.13
2022-08-11T14:16:33.894Z,100196.22
2022-08-11T14:19:26.829Z,100173.53
2022-08-11T14:22:18.942Z,100173.53
2022-08-11T14:25:07.242Z,100160.03
2022-08-11T14:28:32.697Z,100200.94
2022-08-11T14:31:08.423Z,100169.31
2022-08-11T14:34:03.350Z,100167.81
2022-08-11T14:37:00.424Z,100160.78
2022-08-11T14:39:58.232Z,100153.75
2022-08-11T14:43:07.734Z,100158.84
2022-08-11T14:46:15.892Z,100154.44
2022-08-11T14:49:04.525Z,100147.97
2022-08-11T14:51:57.083Z,100142.44
2022-08-11T14:55:10.501Z,100157.44
2022-08-11T14:57:59.910Z,100138.63
2022-08-11T15:00:53.191Z,100146.19
2022-08-11T15:03:41.250Z,100146.75
2022-08-11T15:06:49.062Z,100139.69
2022-08-11T15:09:56.057Z,100121.06
2022-08-11T15:12:50.016Z,100145.63
2022-08-11T15:15:56.534Z,100136.31
2022-08-11T15:18:44.454Z,100120.13
2022-08-11T15:21:53.600Z,100124.88
2022-08-11T15:24:41.568Z,100132.28
2022-08-11T15:27:50.078Z,100125.63
2022-08-11T15:30:57.502Z,100106.78
2022-08-11T15:34:04.766Z,100119.50
2022-08-11T15:37:18.690Z,100107.72
2022-08-11T15:40:34.926Z,100105.97
2022-08-11T15:44:13.363Z,100103.94
2022-08-11T15:47:08.241Z,100115.72
2022-08-11T15:50:10.760Z,100094.97
2022-08-11T15:53:18.421Z,100097.06
2022-08-11T15:56:07.084Z,100094.53
2022-08-11T15:59:41.931Z,100095.78
2022-08-11T16:02:45.311Z,100091.25
2022-08-11T16:05:46.014Z,100083.09
2022-08-11T16:08:37.783Z,100076.25
2022-08-11T16:11:27.386Z,100081.09
2022-08-11T16:14:35.649Z,100072.53
2022-08-11T16:17:28.302Z,100072.94
2022-08-11T16:20:24.832Z,100063.25
2022-08-11T16:23:16.132Z,100070.31
2022-08-11T16:27:11.491Z,100078.88
2022-08-11T16:29:19.802Z,100063.47
2022-08-11T16:32:16.937Z,100056.06
2022-08-11T16:35:29.967Z,100058.94
2022-08-11T16:38:41.763Z,100059.88
2022-08-11T16:41:52.571Z,100060.63
2022-08-11T16:44:59.058Z,100056.88
2022-08-11T16:48:03.198Z,100053.44
2022-08-11T16:51:00.929Z,100042.84
2022-08-11T16:54:04.696Z,100031.03
2022-08-11T16:57:14.790Z,100043.22
2022-08-11T17:00:13.054Z,100057.22
2022-08-11T17:03:21.756Z,100040.84
2022-08-11T17:06:29.359Z,100014.28
2022-08-11T17:09:43.195Z,100047.56
2022-08-11T17:12:50.719Z,100046.13
2022-08-11T17:16:11.699Z,100036.31
2022-08-11T17:19:17.229Z,100052.97
2022-08-11T17:22:26.522Z,100016.38
2022-08-11T17:25:16.496Z,100034.59
2022-08-11T17:28:05.853Z,100033.09
2022-08-11T17:31:21.922Z,100025.13
2022-08-11T17:34:30.334Z,100033.28
2022-08-11T17:37:20.306Z,100042.59
2022-08-11T17:40:14.037Z,100037.50
2022-08-11T17:43:20.648Z,100018.75
2022-08-11T17:46:29.901Z,100032.03
2022-08-11T17:49:20.381Z,100043.66
2022-08-11T17:52:31.875Z,100032.25
2022-08-11T17:55:51.874Z,100049.94
2022-08-11T17:59:00.146Z,100038.19
2022-08-11T18:01:54.084Z,100044.50
2022-08-11T18:04:48.032Z,100049.69
2022-08-11T18:07:56.228Z,100037.91
2022-08-11T18:11:07.654Z,100047.63
2022-08-11T18:14:19.117Z,100054.88
2022-08-11T18:17:26.019Z,100055.88
2022-08-11T18:20:32.309Z,100067.84
2022-08-11T18:23:46.217Z,100057.06
2022-08-11T18:26:53.181Z,100051.59
2022-08-11T18:30:01.465Z,100064.91
2022-08-11T18:33:44.922Z,100063.56
2022-08-11T18:36:46.603Z,100033.94
2022-08-11T18:40:00.298Z,100061.66
2022-08-11T18:43:08.484Z,100065.81
2022-08-11T18:46:24.018Z,100066.16
2022-08-11T18:50:02.306Z,100055.25
2022-08-11T18:53:10.683Z,100054.00
2022-08-11T18:56:18.121Z,100071.03
2022-08-11T18:59:26.786Z,100079.34
2022-08-11T19:02:48.659Z,100074.53
2022-08-11T19:06:35.387Z,100082.63
2022-08-11T19:09:31.961Z,100092.44
2022-08-11T19:12:40.424Z,100091.16
2022-08-11T19:15:48.079Z,100082.88
2022-08-11T19:18:55.820Z,100082.00
2022-08-11T19:22:03.204Z,100083.25
2022-08-11T19:25:11.537Z,100095.16
2022-08-11T19:28:18.950Z,100102.63
2022-08-11T19:31:28.162Z,100090.69
2022-08-11T19:34:37.790Z,100110.69
2022-08-11T19:37:45.523Z,100107.56
2022-08-11T19:40:54.007Z,100119.59
2022-08-11T19:44:01.196Z,100115.91
2022-08-11T19:47:09.492Z,100128.16
2022-08-11T19:50:21.889Z,100102.63
2022-08-11T19:53:31.774Z,100114.41
2022-08-11T19:56:39.166Z,100103.41
2022-08-11T19:59:46.403Z,100128.72
2022-08-11T20:02:55.678Z,100132.88
2022-08-11T20:06:02.208Z,100134.06
2022-08-11T20:09:09.899Z,100126.78
2022-08-11T20:12:20.290Z,100132.75
2022-08-11T20:15:31.684Z,100125.63
2022-08-11T20:18:39.153Z,100130.09
2022-08-11T20:21:47.357Z,100143.28
2022-08-11T20:24:56.655Z,100141.53
2022-08-11T20:28:05.126Z,100147.97
2022-08-11T20:31:12.946Z,100150.91
2022-08-11T20:34:20.431Z,100151.44
2022-08-11T20:37:26.983Z,100151.22
2022-08-11T20:40:35.357Z,100137.47
2022-08-11T20:44:05.713Z,100141.59
2022-08-11T20:47:13.233Z,100151.50
2022-08-11T20:50:20.951Z,100133.47
2022-08-11T20:53:29.486Z,100138.59
2022-08-11T20:56:38.225Z,100148.53
2022-08-11T20:59:50.203Z,100149.81
2022-08-11T21:03:06.000Z,100155.22
2022-08-11T21:06:13.348Z,100152.31
2022-08-11T21:10:00.919Z,100140.38
2022-08-11T21:12:55.621Z,100145.81
2022-08-11T21:16:03.597Z,100156.38
2022-08-11T21:19:59.661Z,100164.47
2022-08-11T21:23:28.721Z,100149.75
2022-08-11T21:26:39.600Z,100160.38
2022-08-11T21:29:47.932Z,100168.84
2022-08-11T21:32:55.791Z,100161.09
2022-08-11T21:36:02.073Z,100172.22
2022-08-11T21:39:11.935Z,100165.94
2022-08-11T21:42:20.298Z,100157.88
2022-08-11T21:45:29.166Z,100147.69
2022-08-11T21:48:38.576Z,100165.34
2022-08-11T21:51:44.846Z,100172.34
2022-08-11T21:54:51.622Z,100181.66
2022-08-11T21:57:59.077Z,100181.25
2022-08-11T22:01:06.255Z,100181.53
2022-08-11T22:04:14.041Z,100181.59
2022-08-11T22:07:21.909Z,100182.47
2022-08-11T22:10:42.238Z,100184.31
2022-08-11T22:14:05.800Z,100184.34
2022-08-11T22:17:14.080Z,100193.53
2022-08-11T22:20:20.966Z,100183.09
2022-08-11T22:23:35.839Z,100191.63
2022-08-11T22:26:47.551Z,100189.34
2022-08-11T22:29:54.113Z,100197.28
2022-08-11T22:33:02.506Z,100185.25
2022-08-11T22:36:10.035Z,100184.53
2022-08-11T22:39:18.658Z,100179.88
2022-08-11T22:42:33.630Z,100185.31
2022-08-11T22:45:40.538Z,100186.44
2022-08-11T22:48:50.554Z,100188.50
2022-08-11T22:51:58.658Z,100191.81
2022-08-11T22:55:06.042Z,100186.94
2022-08-11T22:58:15.866Z,100185.44
2022-08-11T23:01:22.568Z,100169.56
2022-08-11T23:04:30.836Z,100196.59
2022-08-11T23:07:51.184Z,100196.34
2022-08-11T23:10:59.260Z,100201.25
2022-08-11T23:14:06.202Z,100185.22
2022-08-11T23:17:13.498Z,100207.22
2022-08-11T23:20:39.986Z,100196.25
2022-08-11T23:23:48.429Z,100198.84
2022-08-11T23:26:57.130Z,100199.38
2022-08-11T23:30:04.844Z,100188.91
2022-08-11T23:33:17.147Z,100190.97
2022-08-11T23:36:35.707Z,100180.50
2022-08-11T23:39:50.163Z,100174.66
2022-08-11T23:42:58.167Z,100181.56
2022-08-11T23:46:04.580Z,100167.50
2022-08-11T23:49:21.764Z,100174.91
2022-08-11T23:52:28.757Z,100168.09
2022-08-11T23:55:34.965Z,100175.50
2022-08-11T23:58:41.570Z,100171.69
